Time;durP1;ratioP1;P1;durP2;ratioP2;P2;SDS_P1;SDS_P2;PMS_P1;PMS_P2;Temp;Humidity;BMP_temperature;BMP_pressure;BME280_temperature;BME280_humidity;BME280_pressure;Samples;Min_cycle;Max_cycle;Signal;HPM_P1;HPM_P2
2021/09/15 00:02:00;;;;;;;17.10;8.00;;;;;;;12.99;74.75;100429.41;111690;1204;22594;-60
2021/09/15 00:04:32;;;;;;;17.70;8.30;;;;;;;12.96;74.82;100426.21;111585;1205;25301;-60
2021/09/15 00:07:03;;;;;;;16.60;7.70;;;;;;;12.94;74.91;100421.55;111613;1204;22402;-61
2021/09/15 00:09:34;;;;;;;18.20;7.90;;;;;;;12.92;75.07;100420.01;111607;1207;22466;-59
2021/09/15 00:12:06;;;;;;;18.10;8.70;;;;;;;12.90;74.95;100413.90;111615;1204;22530;-61
2021/09/15 00:14:38;;;;;;;14.30;6.90;;;;;;;12.88;75.18;100407.02;111805;1204;22456;-62
2021/09/15 00:17:08;;;;;;;16.30;7.50;;;;;;;12.89;75.13;100406.05;111544;1204;25171;-59
2021/09/15 00:19:39;;;;;;;19.50;7.60;;;;;;;12.88;75.04;100406.49;111605;1206;24105;-63
2021/09/15 00:22:10;;;;;;;20.20;9.10;;;;;;;12.86;75.05;100401.63;111561;1203;22375;-60
2021/09/15 00:24:41;;;;;;;18.70;8.20;;;;;;;12.83;75.31;100397.42;111562;1203;24186;-60
2021/09/15 00:27:12;;;;;;;17.90;8.20;;;;;;;12.80;75.33;100400.73;111556;1203;22921;-59
2021/09/15 00:29:43;;;;;;;18.70;9.10;;;;;;;12.77;75.48;100402.64;111599;1203;26336;-61
2021/09/15 00:32:14;;;;;;;18.30;8.50;;;;;;;12.74;75.63;100403.72;111583;1205;22449;-60
2021/09/15 00:34:45;;;;;;;18.60;8.90;;;;;;;12.72;75.74;100401.70;111567;1204;25529;-59
2021/09/15 00:37:17;;;;;;;16.70;7.90;;;;;;;12.70;75.65;100402.70;111587;1203;22503;-61
2021/09/15 00:39:48;;;;;;;18.70;8.90;;;;;;;12.67;75.54;100400.63;111638;1203;24079;-61
2021/09/15 00:42:19;;;;;;;19.70;8.30;;;;;;;12.65;75.71;100399.79;111586;1203;25185;-59
2021/09/15 00:44:50;;;;;;;19.10;8.90;;;;;;;12.61;75.76;100400.55;111579;1205;25143;-59
2021/09/15 00:47:21;;;;;;;17.70;8.00;;;;;;;12.58;75.79;100402.20;111663;1205;24134;-59
2021/09/15 00:49:51;;;;;;;18.30;9.00;;;;;;;12.55;75.99;100406.53;111679;1205;25435;-59
2021/09/15 00:52:23;;;;;;;18.00;8.50;;;;;;;12.53;75.78;100401.46;111613;1203;25791;-61
2021/09/15 00:54:54;;;;;;;21.10;8.50;;;;;;;12.50;75.81;100406.10;111729;1206;22442;-61
2021/09/15 00:57:25;;;;;;;18.00;8.10;;;;;;;12.47;75.77;100405.15;111624;1204;25204;-59
2021/09/15 00:59:56;;;;;;;21.50;8.70;;;;;;;12.44;75.86;100408.15;111624;1208;22442;-60
2021/09/15 01:02:29;;;;;;;17.70;8.80;;;;;;;12.41;76.10;100404.86;111627;1204;24078;-60
2021/09/15 01:05:00;;;;;;;16.60;8.00;;;;;;;12.37;75.99;100402.77;111676;1204;25092;-59
2021/09/15 01:07:32;;;;;;;18.70;7.80;;;;;;;12.36;75.85;100396.64;111887;1203;22387;-61
2021/09/15 01:10:03;;;;;;;19.80;8.50;;;;;;;12.35;75.83;100398.14;111642;1205;22460;-62
2021/09/15 01:12:35;;;;;;;16.80;8.10;;;;;;;12.34;75.98;100400.94;111598;1203;25153;-60
2021/09/15 01:15:12;;;;;;;19.90;9.10;;;;;;;12.34;75.98;100402.15;111936;1206;23792;-61
2021/09/15 01:17:43;;;;;;;20.70;9.10;;;;;;;12.33;76.33;100404.23;111888;1209;22559;-62
2021/09/15 01:20:14;;;;;;;19.40;10.00;;;;;;;12.32;76.37;100402.09;111570;1204;22450;-59
2021/09/15 01:22:45;;;;;;;18.70;8.80;;;;;;;12.32;76.39;100401.06;111752;1205;22792;-60
2021/09/15 01:25:17;;;;;;;21.20;9.60;;;;;;;12.32;76.38;100400.04;111614;1203;25216;-61
2021/09/15 01:27:48;;;;;;;19.50;9.50;;;;;;;12.32;76.56;100394.38;111690;1205;25202;-59
2021/09/15 01:30:19;;;;;;;18.90;9.80;;;;;;;12.32;76.56;100394.19;111625;1203;22506;-59
2021/09/15 01:32:50;;;;;;;18.40;10.50;;;;;;;12.31;76.87;100397.95;111662;1203;25099;-59
2021/09/15 01:35:44;;;;;;;18.30;9.00;;;;;;;12.29;76.83;100398.87;111632;1204;26166;-61
2021/09/15 01:38:16;;;;;;;21.30;10.10;;;;;;;12.28;76.87;100401.45;111780;1205;22454;-61
2021/09/15 01:40:47;;;;;;;19.30;9.80;;;;;;;12.27;76.86;100402.66;111589;1205;22451;-59
2021/09/15 01:43:18;;;;;;;22.50;10.60;;;;;;;12.25;76.85;100399.33;111630;1204;24105;-60
2021/09/15 01:45:49;;;;;;;19.50;10.30;;;;;;;12.23;76.97;100401.38;111733;1204;24086;-58
2021/09/15 01:48:21;;;;;;;20.60;10.60;;;;;;;12.21;77.16;100399.16;111795;1204;22438;-60
2021/09/15 01:50:52;;;;;;;22.80;11.00;;;;;;;12.17;77.20;100399.74;112274;1204;23744;-59
2021/09/15 01:53:23;;;;;;;20.20;10.60;;;;;;;12.16;77.43;100400.32;111748;1204;22467;-61
2021/09/15 01:55:54;;;;;;;22.40;10.80;;;;;;;12.14;77.44;100398.41;111649;1204;22557;-60
2021/09/15 01:58:25;;;;;;;20.20;10.90;;;;;;;12.12;77.41;100396.34;111556;1205;22477;-59
2021/09/15 02:00:56;;;;;;;22.00;11.20;;;;;;;12.11;77.49;100397.39;111753;1204;25139;-61
2021/09/15 02:03:27;;;;;;;21.40;11.10;;;;;;;12.08;77.60;100398.81;111664;1204;22441;-62
2021/09/15 02:05:58;;;;;;;22.60;11.50;;;;;;;12.06;77.60;100398.80;111819;1203;22470;-60
2021/09/15 02:08:32;;;;;;;22.50;11.70;;;;;;;12.04;77.45;100395.70;111838;1204;22453;-59
2021/09/15 02:11:03;;;;;;;22.90;11.20;;;;;;;12.01;77.31;100396.73;111635;1205;25202;-59
2021/09/15 02:13:36;;;;;;;22.30;11.20;;;;;;;11.99;77.55;100401.13;111647;1204;25010;-58
2021/09/15 02:16:07;;;;;;;22.20;11.30;;;;;;;11.96;77.57;100401.13;111889;1204;22718;-59
2021/09/15 02:18:40;;;;;;;24.20;11.90;;;;;;;11.93;77.72;100398.23;111747;1205;22453;-61
2021/09/15 02:21:10;;;;;;;24.10;12.40;;;;;;;11.91;77.58;100400.83;111663;1204;25099;-60
2021/09/15 02:23:41;;;;;;;21.80;10.50;;;;;;;11.87;77.69;100395.53;111640;1206;22561;-58
2021/09/15 02:26:13;;;;;;;26.50;11.30;;;;;;;11.83;77.65;100391.67;111631;1206;24194;-59
2021/09/15 02:28:44;;;;;;;24.60;10.80;;;;;;;11.81;77.66;100392.85;111602;1205;25094;-59
2021/09/15 02:31:17;;;;;;;21.50;11.00;;;;;;;11.78;77.67;100397.58;111667;1204;22656;-60
2021/09/15 02:33:48;;;;;;;23.90;10.40;;;;;;;11.74;77.69;100400.35;111708;1203;22418;-61
2021/09/15 02:36:19;;;;;;;20.70;10.50;;;;;;;11.69;77.60;100398.45;111667;1205;25100;-61
2021/09/15 02:38:51;;;;;;;23.10;10.50;;;;;;;11.66;77.67;100396.39;111582;1204;22506;-60
2021/09/15 02:41:23;;;;;;;24.60;10.60;;;;;;;11.62;77.57;100395.55;111771;1203;25104;-60
2021/09/15 02:43:53;;;;;;;23.90;10.90;;;;;;;11.58;77.61;100394.15;111734;1204;24234;-60
2021/09/15 02:46:24;;;;;;;26.20;10.40;;;;;;;11.55;77.59;100397.45;111667;1204;22468;-58
2021/09/15 02:48:58;;;;;;;20.80;10.40;;;;;;;11.51;77.73;100393.43;111611;1205;22445;-61
2021/09/15 02:51:29;;;;;;;21.80;10.30;;;;;;;11.50;77.67;100393.27;111689;1196;22440;-60
2021/09/15 02:54:00;;;;;;;22.10;9.70;;;;;;;11.48;77.58;100391.14;111841;1204;24101;-60
2021/09/15 02:56:31;;;;;;;21.10;9.50;;;;;;;11.45;77.55;100388.18;111702;1203;25132;-60
2021/09/15 02:59:02;;;;;;;26.80;11.40;;;;;;;11.44;77.79;100387.45;111733;1205;25192;-61
2021/09/15 03:01:36;;;;;;;23.70;11.90;;;;;;;11.41;77.78;100384.73;111669;1205;22449;-61
2021/09/15 03:04:07;;;;;;;25.90;11.10;;;;;;;11.38;77.84;100380.89;111678;1204;25148;-58
2021/09/15 03:06:39;;;;;;;26.60;11.00;;;;;;;11.36;77.83;100374.36;111813;1205;24184;-61
2021/09/15 03:09:12;;;;;;;26.40;11.90;;;;;;;11.34;77.65;100371.43;111685;1203;25053;-62
2021/09/15 03:11:44;;;;;;;24.70;12.20;;;;;;;11.31;77.74;100367.10;111648;1205;22452;-59
2021/09/15 03:14:14;;;;;;;24.30;12.40;;;;;;;11.29;77.89;100363.21;111633;1205;25074;-61
2021/09/15 03:16:45;;;;;;;21.10;11.60;;;;;;;11.28;78.08;100360.98;111750;1205;25388;-59
2021/09/15 03:19:17;;;;;;;25.30;12.80;;;;;;;11.25;78.12;100358.52;111694;1204;24111;-59
2021/09/15 03:21:48;;;;;;;22.70;12.10;;;;;;;11.23;78.14;100365.08;111715;1205;24101;-59
2021/09/15 03:24:19;;;;;;;26.70;12.40;;;;;;;11.21;78.08;100363.45;111701;1204;22527;-59
2021/09/15 03:26:50;;;;;;;20.20;10.80;;;;;;;11.19;78.22;100369.15;111629;1205;22484;-59
2021/09/15 03:29:21;;;;;;;23.80;11.60;;;;;;;11.16;78.24;100364.99;111715;1205;22469;-60
2021/09/15 03:31:52;;;;;;;23.00;12.10;;;;;;;11.13;78.02;100364.95;111701;1205;22460;-59
2021/09/15 03:34:23;;;;;;;26.10;12.30;;;;;;;11.10;78.00;100359.41;111780;1203;24087;-60
2021/09/15 03:36:55;;;;;;;23.20;10.90;;;;;;;11.06;77.97;100351.50;111822;1205;22468;-59
2021/09/15 03:39:28;;;;;;;27.10;12.40;;;;;;;11.04;78.02;100345.41;112132;1204;25143;-60
2021/09/15 03:41:59;;;;;;;25.40;11.70;;;;;;;11.02;78.00;100347.91;111853;1203;25164;-61
2021/09/15 03:44:32;;;;;;;23.40;12.00;;;;;;;10.99;78.12;100347.14;111956;1202;22449;-59
2021/09/15 03:47:03;;;;;;;23.70;12.70;;;;;;;10.98;78.14;100346.22;111753;1202;24077;-61
2021/09/15 03:49:34;;;;;;;23.80;11.80;;;;;;;10.97;77.98;100346.38;111781;1204;22453;-61
2021/09/15 03:52:06;;;;;;;25.40;12.30;;;;;;;10.94;78.08;100346.64;111706;1203;22449;-59
2021/09/15 03:54:37;;;;;;;21.70;10.80;;;;;;;10.91;77.90;100347.41;111910;1202;22483;-60
2021/09/15 03:57:08;;;;;;;23.60;11.60;;;;;;;10.89;77.91;100346.05;111907;1204;22855;-61
2021/09/15 03:59:39;;;;;;;23.70;11.10;;;;;;;10.86;77.98;100343.65;111733;1202;22441;-61
2021/09/15 04:02:09;;;;;;;21.60;10.90;;;;;;;10.84;77.98;100345.54;111553;1206;22794;-61
2021/09/15 04:04:40;;;;;;;22.50;11.80;;;;;;;10.83;78.13;100355.25;111667;1203;22558;-60
2021/09/15 04:07:11;;;;;;;24.50;12.00;;;;;;;10.82;78.32;100351.64;111738;1204;24169;-59
2021/09/15 04:09:42;;;;;;;22.50;12.30;;;;;;;10.81;78.45;100348.16;111625;1202;24223;-61
2021/09/15 04:12:13;;;;;;;24.60;13.10;;;;;;;10.81;78.50;100351.77;111797;1202;25116;-58
2021/09/15 04:14:44;;;;;;;25.20;13.70;;;;;;;10.81;78.56;100351.42;111720;1202;24180;-60
2021/09/15 04:17:16;;;;;;;22.60;12.00;;;;;;;10.80;78.55;100354.29;111600;1204;24120;-60
2021/09/15 04:19:47;;;;;;;27.40;15.00;;;;;;;10.77;78.51;100353.27;111861;1203;22437;-60
2021/09/15 04:22:19;;;;;;;26.90;13.10;;;;;;;10.74;78.49;100353.98;111696;1203;25007;-59
2021/09/15 04:33:21;;;;;;;23.70;12.90;;;;;;;10.63;78.52;100356.75;111348;1206;22459;-59
2021/09/15 04:35:53;;;;;;;24.60;12.00;;;;;;;10.63;78.57;100355.58;111362;1207;25365;-59
2021/09/15 04:38:27;;;;;;;24.80;13.00;;;;;;;10.61;78.48;100353.20;111584;1207;23802;-59
2021/09/15 04:40:57;;;;;;;24.00;12.60;;;;;;;10.59;78.57;100352.80;111612;1206;25059;-61
2021/09/15 04:43:31;;;;;;;25.20;11.70;;;;;;;10.57;78.67;100355.86;111572;1205;22448;-62
2021/09/15 04:46:02;;;;;;;24.60;12.70;;;;;;;10.55;78.72;100358.41;111668;1207;23689;-61
2021/09/15 04:48:33;;;;;;;24.50;13.00;;;;;;;10.56;78.70;100358.87;111630;1207;22454;-61
2021/09/15 04:51:04;;;;;;;25.10;13.50;;;;;;;10.54;78.77;100355.21;111305;1209;22449;-61
2021/09/15 04:53:36;;;;;;;28.10;13.60;;;;;;;10.54;78.75;100355.45;111533;1208;24064;-60
2021/09/15 04:56:07;;;;;;;23.30;11.90;;;;;;;10.54;78.85;100358.64;111382;1206;24166;-60
2021/09/15 04:58:38;;;;;;;24.30;13.10;;;;;;;10.54;79.02;100361.65;111293;1206;22452;-58
2021/09/15 05:01:09;;;;;;;24.00;12.70;;;;;;;10.55;79.21;100357.09;111379;1206;25148;-62
2021/09/15 05:03:40;;;;;;;26.80;13.30;;;;;;;10.57;79.21;100359.42;111796;1205;25383;-59
2021/09/15 05:06:12;;;;;;;29.40;14.00;;;;;;;10.60;79.36;100361.55;111814;1207;25056;-63
2021/09/15 05:08:43;;;;;;;27.80;14.20;;;;;;;10.63;79.38;100362.21;111749;1203;22441;-61
2021/09/15 05:11:14;;;;;;;23.80;13.30;;;;;;;10.65;79.52;100358.24;111742;1204;22454;-60
2021/09/15 05:13:46;;;;;;;27.10;14.00;;;;;;;10.69;79.58;100355.41;111760;1204;22451;-61
2021/09/15 05:16:17;;;;;;;31.70;15.60;;;;;;;10.75;79.91;100355.00;111904;1206;25111;-60
2021/09/15 05:18:51;;;;;;;32.20;16.60;;;;;;;10.82;80.32;100348.79;111717;1203;22451;-60
2021/09/15 05:21:22;;;;;;;30.90;17.80;;;;;;;10.88;80.53;100343.73;111565;1203;22441;-61
2021/09/15 05:23:53;;;;;;;33.60;19.10;;;;;;;10.94;80.87;100338.56;111535;1198;22924;-60
2021/09/15 05:26:25;;;;;;;35.20;19.60;;;;;;;10.99;81.12;100340.48;112772;1204;23014;-60
2021/09/15 05:28:59;;;;;;;36.50;21.30;;;;;;;11.05;81.43;100334.58;111840;1205;22922;-59
2021/09/15 05:31:30;;;;;;;35.30;20.50;;;;;;;11.13;81.50;100331.98;111975;1203;25163;-58
2021/09/15 05:34:02;;;;;;;39.20;22.80;;;;;;;11.18;81.68;100333.23;112125;1207;22457;-63
2021/09/15 05:36:33;;;;;;;37.20;21.20;;;;;;;11.25;81.70;100335.69;111974;1203;25085;-63
2021/09/15 05:39:03;;;;;;;38.90;22.50;;;;;;;11.31;81.82;100336.15;112063;1204;22605;-63
2021/09/15 05:41:35;;;;;;;46.70;27.40;;;;;;;11.37;82.14;100346.42;111872;1204;22626;-62
2021/09/15 05:44:07;;;;;;;44.10;25.40;;;;;;;11.46;82.28;100350.17;112156;1200;23670;-64
2021/09/15 05:46:39;;;;;;;44.90;27.10;;;;;;;11.54;82.40;100351.67;112009;1204;22440;-62
2021/09/15 05:49:10;;;;;;;50.30;29.60;;;;;;;11.60;82.48;100344.66;112401;1202;22481;-62
2021/09/15 05:51:41;;;;;;;45.10;27.00;;;;;;;11.68;82.85;100347.21;111971;1202;25151;-62
2021/09/15 05:54:15;;;;;;;54.70;32.30;;;;;;;11.76;82.90;100345.73;112040;1202;22451;-54
2021/09/15 05:56:46;;;;;;;52.80;30.90;;;;;;;11.83;82.90;100339.99;112235;1202;22456;-54
2021/09/15 05:59:17;;;;;;;50.80;30.90;;;;;;;11.91;83.17;100331.72;112099;1203;22474;-58
2021/09/15 06:01:48;;;;;;;54.50;32.80;;;;;;;12.00;83.52;100326.86;112169;1204;25225;-56
2021/09/15 06:04:19;;;;;;;55.10;32.60;;;;;;;12.09;83.65;100321.48;112104;1203;22443;-59
2021/09/15 06:07:11;;;;;;;60.90;35.60;;;;;;;12.18;83.80;100319.75;111893;1203;26318;-56
2021/09/15 06:09:42;;;;;;;56.50;35.30;;;;;;;12.26;84.03;100316.39;112087;1203;22465;-55
2021/09/15 06:12:13;;;;;;;55.10;36.80;;;;;;;12.36;84.13;100315.45;112040;1203;23603;-58
2021/09/15 06:14:44;;;;;;;63.70;36.90;;;;;;;12.46;84.11;100314.77;112207;1203;22454;-58
2021/09/15 06:17:15;;;;;;;57.10;37.10;;;;;;;12.53;84.26;100309.11;112035;1204;23996;-58
2021/09/15 06:19:46;;;;;;;68.20;38.70;;;;;;;12.63;84.67;100311.96;111979;1202;22430;-59
2021/09/15 06:22:17;;;;;;;65.70;37.80;;;;;;;12.73;84.74;100314.58;112009;1203;25323;-56
2021/09/15 06:24:53;;;;;;;55.80;36.50;;;;;;;12.81;84.90;100309.94;112104;1203;24030;-55
2021/09/15 06:27:25;;;;;;;58.60;36.50;;;;;;;12.92;85.05;100307.40;112259;1203;25082;-54
2021/09/15 06:29:57;;;;;;;58.20;37.30;;;;;;;13.01;84.95;100306.59;112721;1203;25056;-54
2021/09/15 06:32:29;;;;;;;65.40;38.90;;;;;;;13.11;85.15;100304.97;112472;1203;26297;-57
2021/09/15 06:35:00;;;;;;;61.80;39.90;;;;;;;13.20;85.30;100298.98;112152;1203;24058;-58
2021/09/15 06:37:32;;;;;;;62.70;39.40;;;;;;;13.29;85.26;100300.70;112120;1204;26346;-59
2021/09/15 06:40:03;;;;;;;60.50;37.50;;;;;;;13.38;85.16;100300.98;112051;1202;25245;-56
2021/09/15 06:42:35;;;;;;;61.30;39.10;;;;;;;13.48;85.45;100303.89;112284;1202;22496;-58
2021/09/15 06:45:08;;;;;;;59.90;37.20;;;;;;;13.58;85.59;100302.37;112166;1204;25209;-59
2021/09/15 06:47:44;;;;;;;62.20;38.80;;;;;;;13.68;85.68;100305.56;112392;1200;22464;-57
2021/09/15 06:50:16;;;;;;;62.70;36.60;;;;;;;13.78;85.64;100301.67;112158;1203;22504;-57
2021/09/15 06:52:47;;;;;;;52.50;34.10;;;;;;;13.88;85.60;100302.08;111953;1203;22444;-55
2021/09/15 06:55:18;;;;;;;59.40;36.40;;;;;;;13.97;85.66;100301.68;111959;1203;22526;-55
2021/09/15 06:57:48;;;;;;;54.80;34.50;;;;;;;14.08;85.77;100309.05;112184;1203;22516;-56
2021/09/15 07:00:41;;;;;;;56.40;35.80;;;;;;;14.19;85.88;100307.08;112153;1203;24045;-53
2021/09/15 07:03:12;;;;;;;57.50;34.90;;;;;;;14.33;85.79;100306.56;112075;1204;22371;-56
2021/09/15 07:05:44;;;;;;;57.20;34.80;;;;;;;14.44;85.95;100307.48;112106;1203;22542;-57
2021/09/15 07:08:18;;;;;;;49.30;31.90;;;;;;;14.58;85.95;100310.60;112812;1203;24044;-56
2021/09/15 07:11:11;;;;;;;54.80;33.40;;;;;;;14.67;85.47;100310.69;112072;1203;22441;-54
2021/09/15 07:13:43;;;;;;;52.80;33.00;;;;;;;14.79;85.77;100312.16;111964;1204;25666;-57
2021/09/15 07:16:15;;;;;;;51.00;33.40;;;;;;;14.90;85.53;100312.19;112096;1202;25087;-57
2021/09/15 07:18:46;;;;;;;56.80;32.80;;;;;;;15.01;85.65;100310.64;112306;1204;24568;-54
2021/09/15 07:21:18;;;;;;;50.30;31.70;;;;;;;15.13;85.68;100314.02;112072;1202;26344;-54
2021/09/15 07:23:49;;;;;;;53.90;30.50;;;;;;;15.23;85.39;100312.77;112692;1203;22575;-59
2021/09/15 07:26:20;;;;;;;47.60;29.10;;;;;;;15.31;85.26;100314.56;112107;1203;25184;-56
2021/09/15 07:28:51;;;;;;;47.80;28.40;;;;;;;15.39;85.32;100311.09;112031;1203;22469;-57
2021/09/15 07:31:22;;;;;;;43.90;27.00;;;;;;;15.49;85.31;100309.64;112148;1203;22456;-58
2021/09/15 07:33:54;;;;;;;41.50;24.50;;;;;;;15.58;85.42;100311.62;112040;1203;22536;-55
2021/09/15 07:36:25;;;;;;;46.10;26.60;;;;;;;15.69;85.37;100314.29;112056;1203;26363;-58
2021/09/15 07:38:56;;;;;;;39.30;25.10;;;;;;;15.79;84.91;100316.84;112187;1203;22478;-58
2021/09/15 07:41:28;;;;;;;38.80;22.20;;;;;;;15.88;84.82;100317.65;112076;1203;22555;-57
2021/09/15 07:43:59;;;;;;;37.10;22.20;;;;;;;15.97;84.62;100319.73;112426;1204;25130;-57
2021/09/15 07:46:33;;;;;;;38.60;21.60;;;;;;;16.04;84.43;100323.83;112048;1203;24061;-58
2021/09/15 07:49:04;;;;;;;35.70;21.50;;;;;;;16.14;84.51;100325.64;112307;1203;25700;-57
2021/09/15 07:51:35;;;;;;;36.30;21.60;;;;;;;16.24;84.29;100331.52;112085;1203;25046;-54
2021/09/15 07:54:06;;;;;;;33.50;20.20;;;;;;;16.34;84.21;100333.22;112372;1202;22454;-56
2021/09/15 07:56:37;;;;;;;32.90;19.00;;;;;;;16.43;83.85;100336.11;112055;1202;22440;-59
2021/09/15 07:59:09;;;;;;;35.90;20.70;;;;;;;16.54;83.98;100338.20;112030;1203;24125;-57
2021/09/15 08:01:40;;;;;;;29.60;16.70;;;;;;;16.65;83.78;100335.25;111981;1203;25368;-58
2021/09/15 08:04:11;;;;;;;30.00;17.70;;;;;;;16.76;83.73;100337.30;111946;1202;23907;-59
2021/09/15 08:06:42;;;;;;;31.10;18.00;;;;;;;16.90;83.42;100336.86;112022;1203;25160;-58
2021/09/15 08:09:13;;;;;;;27.80;17.20;;;;;;;17.05;83.11;100340.63;111872;1202;22600;-56
2021/09/15 08:11:44;;;;;;;32.50;16.30;;;;;;;17.14;82.74;100337.45;111931;1203;22531;-58
2021/09/15 08:14:16;;;;;;;29.50;17.60;;;;;;;17.28;82.91;100336.49;111932;1202;24083;-57
2021/09/15 08:16:48;;;;;;;29.30;16.00;;;;;;;17.45;82.88;100329.70;112158;1203;22450;-57
2021/09/15 08:19:19;;;;;;;28.80;16.50;;;;;;;17.59;82.30;100334.54;112100;1203;25495;-57
2021/09/15 08:21:50;;;;;;;30.70;16.70;;;;;;;17.70;81.64;100330.80;111893;1203;25163;-55
2021/09/15 08:24:21;;;;;;;31.40;16.20;;;;;;;17.81;81.54;100333.42;111768;1203;25160;-57
2021/09/15 08:26:52;;;;;;;31.10;15.60;;;;;;;17.90;81.35;100329.20;111945;1203;22547;-58
2021/09/15 08:29:22;;;;;;;27.30;14.40;;;;;;;17.98;81.20;100328.23;111892;1203;24116;-58
2021/09/15 08:31:53;;;;;;;32.30;15.70;;;;;;;18.07;81.14;100317.52;111941;1203;22541;-57
2021/09/15 08:34:26;;;;;;;29.60;16.00;;;;;;;18.19;81.14;100321.65;111855;1203;24072;-56
2021/09/15 08:36:57;;;;;;;29.50;14.90;;;;;;;18.33;81.01;100321.64;112110;1203;22423;-59
2021/09/15 08:39:29;;;;;;;29.60;16.60;;;;;;;18.46;80.67;100320.95;111902;1203;25191;-55
2021/09/15 08:42:00;;;;;;;34.30;16.40;;;;;;;18.54;80.07;100320.71;111842;1203;22490;-58
2021/09/15 08:44:32;;;;;;;26.00;14.10;;;;;;;18.62;79.86;100322.23;111930;1204;25257;-57
2021/09/15 08:47:05;;;;;;;21.70;12.30;;;;;;;18.71;79.55;100321.22;111868;1203;24089;-58
2021/09/15 08:49:37;;;;;;;28.00;13.90;;;;;;;18.83;79.14;100321.07;111944;1203;22459;-61
2021/09/15 08:52:11;;;;;;;33.60;14.90;;;;;;;18.95;79.18;100318.59;111919;1203;22455;-58
2021/09/15 08:54:42;;;;;;;26.60;15.10;;;;;;;19.05;78.85;100321.43;112106;1203;25014;-55
2021/09/15 08:57:14;;;;;;;25.20;13.20;;;;;;;19.12;78.55;100314.45;111977;1203;25203;-57
2021/09/15 08:59:46;;;;;;;25.20;14.00;;;;;;;19.18;78.18;100309.52;111929;1203;25434;-58
2021/09/15 09:02:17;;;;;;;23.40;12.00;;;;;;;19.24;78.21;100306.45;111679;1203;24067;-64
2021/09/15 09:04:57;;;;;;;23.40;11.80;;;;;;;19.33;78.08;100303.12;111635;1202;25074;-65
2021/09/15 09:07:30;;;;;;;26.30;14.00;;;;;;;19.46;77.83;100296.71;111574;1203;22451;-64
2021/09/15 09:10:06;;;;;;;28.90;13.30;;;;;;;19.55;77.70;100294.34;111551;1203;25227;-63
2021/09/15 09:12:40;;;;;;;23.20;11.70;;;;;;;19.63;77.25;100288.18;111972;1203;25315;-64
2021/09/15 09:15:18;;;;;;;22.70;11.70;;;;;;;19.71;77.08;100290.89;111672;1203;22434;-65
2021/09/15 09:17:50;;;;;;;22.20;10.20;;;;;;;19.79;76.77;100292.12;111766;1203;22474;-63
2021/09/15 09:20:31;;;;;;;25.20;11.00;;;;;;;19.87;76.34;100287.30;111853;1202;24295;-64
2021/09/15 09:23:09;;;;;;;23.70;11.50;;;;;;;20.03;76.17;100289.48;112191;1203;25046;-63
2021/09/15 09:25:43;;;;;;;19.00;9.60;;;;;;;20.19;76.02;100290.96;111872;1203;24186;-64
2021/09/15 09:28:27;;;;;;;20.30;10.70;;;;;;;20.34;75.48;100289.88;111932;1203;25140;-64
2021/09/15 09:31:01;;;;;;;21.30;10.00;;;;;;;20.49;75.06;100287.48;112074;1203;22559;-64
2021/09/15 09:33:35;;;;;;;18.90;9.60;;;;;;;20.57;74.90;100287.70;111815;1203;22458;-64
2021/09/15 09:36:09;;;;;;;18.70;8.80;;;;;;;20.66;74.45;100287.63;111706;1203;25183;-64
2021/09/15 09:38:42;;;;;;;23.40;11.10;;;;;;;20.72;74.28;100279.68;111860;1203;22436;-64
2021/09/15 09:41:18;;;;;;;19.40;9.50;;;;;;;20.83;74.03;100273.73;112764;1203;22949;-64
2021/09/15 09:43:52;;;;;;;21.10;9.90;;;;;;;20.96;73.97;100274.09;111771;1203;22547;-63
2021/09/15 09:46:32;;;;;;;24.00;7.80;;;;;;;21.07;73.62;100269.71;111768;1203;24116;-64
2021/09/15 09:49:05;;;;;;;15.40;7.50;;;;;;;21.19;73.15;100274.00;111488;1204;22466;-64
2021/09/15 09:51:37;;;;;;;17.30;7.10;;;;;;;21.37;72.85;100267.74;111826;1203;22453;-64
2021/09/15 09:54:18;;;;;;;17.90;8.10;;;;;;;21.49;72.50;100259.89;111757;1203;22533;-64
2021/09/15 09:56:52;;;;;;;18.90;8.00;;;;;;;21.60;72.39;100262.20;111858;1203;24212;-63
2021/09/15 09:59:26;;;;;;;17.80;8.70;;;;;;;21.69;72.06;100260.41;112253;1203;25167;-64
2021/09/15 10:01:59;;;;;;;17.00;6.70;;;;;;;21.80;71.72;100259.21;111766;1203;24193;-64
2021/09/15 10:04:32;;;;;;;16.60;6.20;;;;;;;21.89;71.15;100257.29;111857;1203;24064;-64
2021/09/15 10:07:06;;;;;;;14.70;6.00;;;;;;;21.96;70.52;100252.05;111787;1203;23582;-64
2021/09/15 10:09:41;;;;;;;20.40;7.20;;;;;;;22.04;70.50;100254.19;111964;1202;22578;-64
2021/09/15 10:12:13;;;;;;;14.70;6.00;;;;;;;22.11;70.04;100252.71;111769;1203;25436;-64
2021/09/15 10:14:45;;;;;;;12.70;5.70;;;;;;;22.17;69.97;100248.09;112380;1203;24586;-64
2021/09/15 10:17:25;;;;;;;17.50;7.40;;;;;;;22.22;69.51;100248.07;112049;1203;24230;-64
2021/09/15 10:19:58;;;;;;;16.10;6.00;;;;;;;22.30;69.21;100243.69;112064;1202;22564;-64
2021/09/15 10:22:35;;;;;;;13.80;5.50;;;;;;;22.37;68.74;100239.13;111915;1203;23919;-64
2021/09/15 10:25:09;;;;;;;14.50;5.60;;;;;;;22.44;68.73;100238.83;111786;1203;22466;-64
2021/09/15 10:28:02;;;;;;;16.40;6.60;;;;;;;22.50;68.14;100240.27;111754;1203;24040;-64
2021/09/15 10:30:47;;;;;;;14.60;5.50;;;;;;;22.56;67.83;100239.87;111744;1203;22504;-64
2021/09/15 10:33:47;;;;;;;12.00;5.10;;;;;;;22.64;67.73;100236.13;111754;1203;22537;-65
2021/09/15 10:36:43;;;;;;;15.40;4.80;;;;;;;22.76;67.22;100234.16;111650;1206;22462;-65
2021/09/15 10:39:24;;;;;;;15.20;5.10;;;;;;;22.86;66.81;100232.74;111501;1206;25179;-64
2021/09/15 10:41:55;;;;;;;9.50;4.10;;;;;;;22.92;66.35;100231.75;111416;1206;24398;-64
2021/09/15 10:44:27;;;;;;;14.10;4.10;;;;;;;22.97;66.02;100231.58;111439;1206;26426;-64
2021/09/15 10:47:17;;;;;;;13.80;3.90;;;;;;;23.05;65.91;100235.67;112043;1206;23591;-65
2021/09/15 10:49:49;;;;;;;12.60;3.50;;;;;;;23.14;65.05;100228.22;112116;1206;22458;-64
2021/09/15 10:52:36;;;;;;;9.50;3.80;;;;;;;23.21;64.82;100226.98;111399;1206;25633;-64
2021/09/15 10:55:29;;;;;;;;;;;;;;;;;;;;;
2021/09/15 10:58:12;;;;;;;11.40;4.10;;;;;;;23.37;64.53;100220.82;111391;1206;22461;-64
2021/09/15 11:00:51;;;;;;;8.40;4.20;;;;;;;23.44;63.95;100212.36;111780;1206;25062;-64
2021/09/15 11:03:30;;;;;;;11.80;4.30;;;;;;;23.51;63.68;100206.47;111489;1206;23126;-64
2021/09/15 11:06:23;;;;;;;8.30;3.20;;;;;;;23.54;63.33;100201.80;111381;1206;22549;-64
2021/09/15 11:08:56;;;;;;;8.60;2.90;;;;;;;23.56;62.88;100194.62;111615;1206;25140;-64
2021/09/15 11:11:52;;;;;;;11.90;3.60;;;;;;;23.60;62.68;100195.92;111816;1206;25291;-63
2021/09/15 11:14:23;;;;;;;9.60;3.10;;;;;;;23.62;62.04;100197.73;111599;1203;25370;-64
2021/09/15 11:17:03;;;;;;;8.90;3.40;;;;;;;23.63;61.56;100195.38;111716;1203;22461;-64
2021/09/15 11:19:34;;;;;;;;;;;;;;;23.66;61.57;100194.54;111845;1203;25299;-64
2021/09/15 11:22:08;;;;;;;10.10;3.60;;;;;;;23.71;61.47;100190.80;111658;1202;24112;-64
2021/09/15 11:24:40;;;;;;;19.50;4.20;;;;;;;23.74;60.95;100191.86;111609;1203;22523;-64
2021/09/15 11:27:14;;;;;;;9.80;3.30;;;;;;;23.78;60.70;100191.98;111642;1203;22457;-64
2021/09/15 11:29:52;;;;;;;14.70;4.50;;;;;;;23.83;60.57;100187.59;111671;1203;25319;-63
2021/09/15 11:32:46;;;;;;;11.80;3.60;;;;;;;23.89;59.91;100186.55;112060;1203;24091;-64
2021/09/15 11:35:18;;;;;;;10.60;4.60;;;;;;;23.95;59.65;100181.98;112510;1204;22481;-63
2021/09/15 11:37:51;;;;;;;10.90;3.40;;;;;;;24.01;59.60;100180.41;112270;1203;22453;-64
2021/09/15 11:40:29;;;;;;;10.20;3.20;;;;;;;24.05;59.22;100183.39;111815;1203;24140;-63
2021/09/15 11:43:05;;;;;;;8.90;2.80;;;;;;;24.07;58.69;100183.50;112184;1203;22453;-65